Time;durP1;ratioP1;P1;durP2;ratioP2;P2;SDS_P1;SDS_P2;PMS_P1;PMS_P2;Temp;Humidity;BMP_temperature;BMP_pressure;BME280_temperature;BME280_humidity;BME280_pressure;Samples;Min_cycle;Max_cycle;Signal;HPM_P1;HPM_P2
2022/07/04 00:02:16;;;;;;;1.43;0.90;;;17.50;89.60;;;;;;4997252;28;20565;-76
2022/07/04 00:04:45;;;;;;;1.47;0.90;;;17.50;89.90;;;;;;5001654;28;20465;-76
2022/07/04 00:07:12;;;;;;;1.47;0.97;;;17.40;90.40;;;;;;4982039;28;20543;-76
2022/07/04 00:09:39;;;;;;;1.50;1.00;;;17.40;90.20;;;;;;4996332;28;20464;-77
2022/07/04 00:12:08;;;;;;;1.47;0.90;;;17.40;89.80;;;;;;4984902;28;20512;-76
2022/07/04 00:14:35;;;;;;;1.50;1.00;;;17.40;90.20;;;;;;4990367;28;20481;-77
2022/07/04 00:17:02;;;;;;;1.60;1.23;;;17.40;90.70;;;;;;4988653;28;20973;-77
2022/07/04 00:19:29;;;;;;;1.50;0.90;;;17.30;90.90;;;;;;4989515;28;20560;-77
2022/07/04 00:21:56;;;;;;;1.47;0.90;;;17.30;91.70;;;;;;4988556;28;20833;-77
2022/07/04 00:24:22;;;;;;;1.43;0.90;;;17.30;92.50;;;;;;4986964;28;20472;-77
2022/07/04 00:26:49;;;;;;;1.47;0.90;;;17.30;92.00;;;;;;4979519;28;20492;-77
2022/07/04 00:29:17;;;;;;;1.47;1.00;;;17.30;92.20;;;;;;4988288;28;20814;-77
2022/07/04 00:31:44;;;;;;;1.50;0.90;;;17.20;91.70;;;;;;4987699;28;20457;-77
2022/07/04 00:34:11;;;;;;;1.47;0.90;;;17.20;93.00;;;;;;4989415;28;20821;-77
2022/07/04 00:36:38;;;;;;;1.50;0.90;;;17.20;93.50;;;;;;4977754;28;20575;-77
2022/07/04 00:39:05;;;;;;;1.47;0.90;;;17.20;92.70;;;;;;4984980;28;20493;-77
2022/07/04 00:41:32;;;;;;;1.50;1.00;;;17.10;92.90;;;;;;4976657;28;20482;-77
2022/07/04 00:44:03;;;;;;;1.47;1.00;;;17.10;92.60;;;;;;4997952;28;20472;-77
2022/07/04 00:46:31;;;;;;;1.50;0.90;;;17.10;92.50;;;;;;4976049;28;21008;-76
2022/07/04 00:48:58;;;;;;;1.47;0.90;;;17.00;92.90;;;;;;4988918;28;20489;-77
2022/07/04 00:51:25;;;;;;;1.47;0.90;;;17.00;93.70;;;;;;4989038;28;20838;-77
2022/07/04 00:53:54;;;;;;;1.50;0.97;;;17.00;93.80;;;;;;4991700;28;20469;-76
2022/07/04 00:56:22;;;;;;;1.47;0.90;;;16.90;93.70;;;;;;4982929;28;20491;-77
2022/07/04 00:58:48;;;;;;;1.50;0.90;;;16.90;93.40;;;;;;4985564;28;21003;-76
2022/07/04 01:01:15;;;;;;;1.50;1.00;;;16.90;93.80;;;;;;4991849;28;20875;-76
2022/07/04 01:03:45;;;;;;;1.50;0.90;;;16.90;94.60;;;;;;4986757;28;20469;-76
2022/07/04 01:06:18;;;;;;;1.47;1.00;;;16.80;94.30;;;;;;5003595;28;20484;-76
2022/07/04 01:08:45;;;;;;;1.43;0.97;;;16.80;94.00;;;;;;4997856;28;20487;-76
2022/07/04 01:11:18;;;;;;;1.50;0.90;;;16.80;94.60;;;;;;4987608;28;20481;-77
2022/07/04 01:13:45;;;;;;;1.50;1.00;;;16.80;95.30;;;;;;5010660;28;20557;-76
2022/07/04 01:16:13;;;;;;;1.50;1.10;;;16.80;95.20;;;;;;4994396;28;20533;-76
2022/07/04 01:18:41;;;;;;;1.50;0.93;;;16.70;94.90;;;;;;5001038;28;20488;-76
2022/07/04 01:21:10;;;;;;;1.50;0.93;;;16.70;95.10;;;;;;4989959;28;20483;-77
2022/07/04 01:23:39;;;;;;;1.50;0.90;;;16.60;94.80;;;;;;5001313;28;20468;-76
2022/07/04 01:26:07;;;;;;;1.47;1.00;;;16.60;94.80;;;;;;5002052;28;22439;-77
2022/07/04 01:28:36;;;;;;;1.50;1.00;;;16.60;94.90;;;;;;5001690;28;20481;-76
2022/07/04 01:31:03;;;;;;;1.43;0.90;;;16.60;95.00;;;;;;4997983;28;20476;-75
2022/07/04 01:33:33;;;;;;;1.47;1.00;;;16.60;95.10;;;;;;4996549;28;20457;-76
2022/07/04 01:36:01;;;;;;;1.47;0.90;;;16.50;95.10;;;;;;4983168;28;21004;-76
2022/07/04 01:38:29;;;;;;;1.50;0.90;;;16.50;95.00;;;;;;5008573;28;20488;-76
2022/07/04 01:40:56;;;;;;;1.50;0.90;;;16.40;95.40;;;;;;4981681;28;20933;-77
2022/07/04 01:43:23;;;;;;;1.50;1.00;;;16.40;94.70;;;;;;4992317;28;20472;-77
2022/07/04 01:45:51;;;;;;;1.47;1.00;;;16.40;94.90;;;;;;4989920;28;20469;-76
2022/07/04 01:48:27;;;;;;;1.50;1.00;;;16.40;95.20;;;;;;5015553;28;20475;-77
2022/07/04 01:50:55;;;;;;;1.50;1.00;;;16.40;95.10;;;;;;5000743;28;20563;-76
2022/07/04 01:53:27;;;;;;;1.50;1.00;;;16.30;95.50;;;;;;4996288;28;20949;-76
2022/07/04 01:55:55;;;;;;;1.50;1.00;;;16.30;95.70;;;;;;4989898;28;21017;-76
2022/07/04 01:58:25;;;;;;;1.47;1.00;;;16.30;95.00;;;;;;4998414;28;20481;-76
2022/07/04 02:03:38;;;;;;;1.43;1.00;;;16.20;95.80;;;;;;5001817;28;20444;-76
2022/07/04 02:06:05;;;;;;;1.50;1.00;;;16.20;94.80;;;;;;4995538;28;20492;-76
2022/07/04 02:11:16;;;;;;;1.47;1.00;;;16.20;95.20;;;;;;4985933;28;20488;-77
2022/07/04 02:13:42;;;;;;;1.50;1.00;;;16.10;95.30;;;;;;5014787;28;20942;-76
2022/07/04 02:16:09;;;;;;;1.50;1.00;;;16.10;95.30;;;;;;4993186;28;21110;-76
2022/07/04 02:18:41;;;;;;;1.47;1.00;;;16.10;95.90;;;;;;5001126;28;20509;-76
2022/07/04 02:21:12;;;;;;;1.50;1.10;;;16.10;95.20;;;;;;4992420;28;21011;-76
2022/07/04 02:23:39;;;;;;;1.50;0.97;;;16.00;95.30;;;;;;5002590;28;20465;-76
2022/07/04 02:26:07;;;;;;;1.50;1.00;;;16.00;95.30;;;;;;5004777;28;20500;-76
2022/07/04 02:28:37;;;;;;;1.47;0.90;;;16.00;95.70;;;;;;5003797;28;20489;-75
2022/07/04 02:31:04;;;;;;;1.50;1.10;;;16.00;96.40;;;;;;5002794;28;20577;-75
2022/07/04 02:33:31;;;;;;;1.43;1.00;;;15.90;95.50;;;;;;5004484;28;20469;-76
2022/07/04 02:36:02;;;;;;;1.50;1.00;;;15.90;95.70;;;;;;5003644;28;20972;-76
2022/07/04 02:38:32;;;;;;;1.50;1.00;;;15.90;95.40;;;;;;5003910;28;20496;-75
2022/07/04 02:40:59;;;;;;;1.50;1.00;;;15.80;96.10;;;;;;4983731;28;20477;-75
2022/07/04 02:43:26;;;;;;;1.50;1.00;;;15.80;96.40;;;;;;5001246;28;20464;-76
2022/07/04 02:45:58;;;;;;;1.47;1.00;;;15.80;96.40;;;;;;4990701;28;20465;-75
2022/07/04 02:48:25;;;;;;;1.50;1.00;;;15.80;96.30;;;;;;5012323;28;20489;-76
2022/07/04 02:50:53;;;;;;;1.50;1.00;;;15.70;97.00;;;;;;4992111;28;20472;-75
2022/07/04 02:53:26;;;;;;;1.50;1.00;;;15.70;96.20;;;;;;4999187;28;21018;-76
2022/07/04 02:55:57;;;;;;;1.50;1.00;;;15.70;96.90;;;;;;4991887;28;20969;-76
2022/07/04 02:58:36;;;;;;;1.50;1.00;;;15.70;96.50;;;;;;5000634;28;20485;-76
2022/07/04 03:01:05;;;;;;;1.43;0.97;;;15.60;96.90;;;;;;4984571;28;20488;-76
2022/07/04 03:03:36;;;;;;;1.50;1.00;;;15.60;96.90;;;;;;4995667;28;20495;-76
2022/07/04 03:06:03;;;;;;;1.50;1.00;;;15.60;96.80;;;;;;4997164;28;20472;-76
2022/07/04 03:08:30;;;;;;;1.50;1.00;;;15.60;97.60;;;;;;4988286;28;20503;-76
2022/07/04 03:11:00;;;;;;;1.50;1.00;;;15.60;97.90;;;;;;4988458;28;20466;-77
2022/07/04 03:13:33;;;;;;;1.47;1.00;;;15.60;97.80;;;;;;4998919;28;20457;-76
2022/07/04 03:16:01;;;;;;;1.50;1.10;;;15.60;97.80;;;;;;4997691;28;20466;-76
2022/07/04 03:18:30;;;;;;;1.50;1.10;;;15.50;98.10;;;;;;5000405;28;20547;-77
2022/07/04 03:21:05;;;;;;;1.50;1.00;;;15.50;98.20;;;;;;4988912;28;20524;-78
2022/07/04 03:23:33;;;;;;;1.50;1.00;;;15.50;97.80;;;;;;4990880;28;20472;-77
2022/07/04 03:26:04;;;;;;;1.50;0.90;;;15.50;98.10;;;;;;4983154;28;20472;-78
2022/07/04 03:28:32;;;;;;;1.47;1.00;;;15.50;97.70;;;;;;4990332;28;20969;-76
2022/07/04 03:31:01;;;;;;;1.50;1.00;;;15.50;98.20;;;;;;4981735;28;20527;-76
2022/07/04 03:33:49;;;;;;;1.47;1.00;;;15.50;98.20;;;;;;4999348;28;20540;-79
2022/07/04 03:39:12;;;;;;;1.50;1.10;;;15.40;98.10;;;;;;4991189;28;20517;-76
2022/07/04 03:44:30;;;;;;;1.50;0.90;;;15.40;97.50;;;;;;4992918;28;20492;-75
2022/07/04 03:46:58;;;;;;;1.47;1.00;;;15.40;98.20;;;;;;4981157;28;20634;-77
2022/07/04 03:49:38;;;;;;;1.50;1.10;;;15.40;98.20;;;;;;4992886;28;20464;-75
2022/07/04 03:52:17;;;;;;;1.47;0.90;;;15.40;97.80;;;;;;4970401;28;20474;-77
2022/07/04 03:54:47;;;;;;;1.50;1.00;;;15.40;98.10;;;;;;4999054;28;20568;-80
2022/07/04 04:00:07;;;;;;;1.50;1.00;;;15.40;97.40;;;;;;4987464;28;20465;-77
2022/07/04 04:02:54;;;;;;;1.50;1.00;;;15.30;98.20;;;;;;4981377;28;20937;-77
2022/07/04 04:05:38;;;;;;;1.43;0.90;;;15.30;98.20;;;;;;5002753;28;20475;-75
2022/07/04 04:08:09;;;;;;;1.50;1.00;;;15.30;98.10;;;;;;4986312;28;20516;-76
2022/07/04 04:10:36;;;;;;;1.50;1.00;;;15.30;98.00;;;;;;5006679;23;20461;-88
2022/07/04 04:13:02;;;;;;;1.50;1.00;;;15.30;98.20;;;;;;5030930;23;20529;-77
2022/07/04 04:15:29;;;;;;;1.47;1.00;;;15.40;98.10;;;;;;5025096;28;20466;-75
2022/07/04 04:17:56;;;;;;;1.47;1.00;;;15.40;97.70;;;;;;5034203;28;20489;-75
2022/07/04 04:20:23;;;;;;;1.50;1.00;;;15.40;98.20;;;;;;5028406;28;20545;-75
2022/07/04 04:22:51;;;;;;;1.47;1.00;;;15.40;98.20;;;;;;5031340;28;20482;-77
2022/07/04 04:25:18;;;;;;;1.47;1.00;;;15.40;97.90;;;;;;5026980;28;20475;-76
2022/07/04 04:27:45;;;;;;;1.47;1.00;;;15.40;98.10;;;;;;5026895;28;20491;-76
2022/07/04 04:30:13;;;;;;;1.50;1.00;;;15.40;98.10;;;;;;5028609;28;20493;-76
2022/07/04 04:32:39;;;;;;;1.47;1.00;;;15.40;98.10;;;;;;5031152;28;20883;-76
2022/07/04 04:35:06;;;;;;;1.50;1.00;;;15.50;98.20;;;;;;5025592;28;20947;-76
2022/07/04 04:37:33;;;;;;;1.47;1.00;;;15.40;98.20;;;;;;5029900;28;20482;-77
2022/07/04 04:40:02;;;;;;;1.47;1.00;;;15.40;98.20;;;;;;5031674;28;20849;-76
2022/07/04 04:42:28;;;;;;;1.47;0.90;;;15.50;98.20;;;;;;5026920;28;20485;-76
2022/07/04 04:44:55;;;;;;;1.43;1.00;;;15.50;98.20;;;;;;5022169;28;20547;-76
2022/07/04 04:47:22;;;;;;;1.43;0.90;;;15.60;98.20;;;;;;5023954;28;20484;-77
2022/07/04 04:49:49;;;;;;;1.47;0.90;;;15.70;98.20;;;;;;5025654;28;20459;-77
2022/07/04 04:52:16;;;;;;;1.50;1.00;;;15.90;98.20;;;;;;5028640;28;20490;-77
2022/07/04 04:54:43;;;;;;;1.50;1.10;;;16.10;98.20;;;;;;5031670;28;20467;-77
2022/07/04 04:57:11;;;;;;;1.50;1.10;;;16.40;98.20;;;;;;5027624;28;20482;-77
2022/07/04 04:59:38;;;;;;;1.47;0.93;;;16.70;97.60;;;;;;5031777;28;20494;-76
2022/07/04 05:02:05;;;;;;;1.50;1.00;;;16.90;96.70;;;;;;5028236;28;20973;-77
2022/07/04 05:04:34;;;;;;;1.50;1.00;;;17.20;95.70;;;;;;5043854;28;20467;-76
2022/07/04 05:07:01;;;;;;;1.47;0.93;;;17.50;95.50;;;;;;5024615;28;20463;-77
2022/07/04 05:09:29;;;;;;;1.40;0.90;;;17.80;94.40;;;;;;5028658;28;20459;-76
2022/07/04 05:11:56;;;;;;;1.50;1.07;;;18.00;93.90;;;;;;5021028;28;20998;-77
2022/07/04 05:14:24;;;;;;;1.50;0.90;;;18.30;92.80;;;;;;5035697;28;20467;-77
2022/07/04 05:16:51;;;;;;;1.50;0.90;;;18.50;92.20;;;;;;5028841;28;20540;-77
2022/07/04 05:19:18;;;;;;;1.50;0.97;;;18.80;91.30;;;;;;5035319;28;20510;-75
2022/07/04 05:21:46;;;;;;;1.50;0.90;;;19.00;90.70;;;;;;5021753;28;20491;-75
2022/07/04 05:24:13;;;;;;;1.50;0.90;;;19.20;90.70;;;;;;5025104;28;20845;-77
2022/07/04 05:26:40;;;;;;;1.50;0.90;;;19.40;90.70;;;;;;5016188;28;20482;-76
2022/07/04 05:29:07;;;;;;;1.50;0.90;;;19.70;89.70;;;;;;5027257;28;20562;-76
2022/07/04 05:31:36;;;;;;;1.47;0.90;;;20.10;89.20;;;;;;5023356;28;20489;-75
2022/07/04 05:34:03;;;;;;;1.43;0.90;;;20.30;88.00;;;;;;5037559;28;20805;-76
2022/07/04 05:36:30;;;;;;;1.47;0.90;;;20.40;87.30;;;;;;5022291;28;20595;-76
2022/07/04 05:38:58;;;;;;;1.50;0.90;;;20.50;87.20;;;;;;5037583;28;20458;-78
2022/07/04 05:41:25;;;;;;;1.50;0.90;;;20.60;86.80;;;;;;5027687;28;20606;-77
2022/07/04 05:43:52;;;;;;;1.50;0.90;;;20.70;86.70;;;;;;5034730;28;20467;-76
2022/07/04 05:46:19;;;;;;;1.50;0.90;;;20.70;86.20;;;;;;5025729;28;20977;-76
2022/07/04 05:48:48;;;;;;;1.50;0.90;;;20.80;86.30;;;;;;5042600;28;20534;-76
2022/07/04 05:51:15;;;;;;;1.47;0.90;;;21.10;85.80;;;;;;5024192;28;20494;-76
2022/07/04 05:53:42;;;;;;;1.50;0.90;;;21.20;84.90;;;;;;5044045;28;20464;-76
2022/07/04 05:56:09;;;;;;;1.50;0.90;;;21.30;84.60;;;;;;5025451;28;20482;-76
2022/07/04 05:58:36;;;;;;;1.47;0.80;;;21.30;84.50;;;;;;5044739;28;20466;-77
2022/07/04 06:01:04;;;;;;;1.47;0.90;;;21.30;84.50;;;;;;5022546;28;20479;-78
2022/07/04 06:03:31;;;;;;;1.47;0.90;;;21.40;84.70;;;;;;5046121;28;20483;-77
2022/07/04 06:06:00;;;;;;;1.50;0.90;;;21.50;84.60;;;;;;5023487;28;20471;-77
2022/07/04 06:08:27;;;;;;;1.50;0.90;;;21.60;84.10;;;;;;5046650;28;20871;-77
2022/07/04 06:10:54;;;;;;;1.50;0.90;;;21.80;83.70;;;;;;5030502;28;20803;-76
2022/07/04 06:13:21;;;;;;;1.43;0.90;;;22.00;83.50;;;;;;5036436;28;20997;-77
2022/07/04 06:15:49;;;;;;;1.50;0.90;;;22.20;82.80;;;;;;5024433;28;20467;-77
2022/07/04 06:18:16;;;;;;;1.50;0.87;;;22.30;82.30;;;;;;5045955;28;20494;-76
2022/07/04 06:20:43;;;;;;;1.47;0.90;;;22.40;82.80;;;;;;5032356;28;20541;-77
2022/07/04 06:23:12;;;;;;;1.50;0.90;;;22.50;82.10;;;;;;5031207;28;20471;-77
2022/07/04 06:25:39;;;;;;;1.47;0.90;;;22.60;82.50;;;;;;5033893;28;20525;-76
2022/07/04 06:28:11;;;;;;;1.50;0.90;;;22.80;80.90;;;;;;5045727;28;20474;-77
2022/07/04 06:30:38;;;;;;;1.47;0.90;;;22.90;81.10;;;;;;5033982;28;20518;-76
2022/07/04 06:33:05;;;;;;;1.50;0.90;;;23.00;80.40;;;;;;5036133;28;21009;-76
2022/07/04 06:35:51;;;;;;;1.47;0.90;;;23.20;79.90;;;;;;5033277;28;20467;-76
2022/07/04 06:38:21;;;;;;;1.50;0.90;;;23.40;80.00;;;;;;5020370;28;20553;-76
2022/07/04 06:40:49;;;;;;;1.50;0.90;;;23.70;78.90;;;;;;5032569;28;21185;-77
2022/07/04 06:43:16;;;;;;;1.47;0.90;;;23.80;78.50;;;;;;5034522;28;20672;-77
2022/07/04 06:45:50;;;;;;;1.40;0.90;;;24.00;77.80;;;;;;5035839;28;20478;-77
2022/07/04 06:48:18;;;;;;;1.47;0.87;;;24.20;77.20;;;;;;5024939;28;20487;-77
2022/07/04 06:50:46;;;;;;;1.50;0.90;;;24.20;77.10;;;;;;5031723;28;20471;-76
2022/07/04 06:53:13;;;;;;;1.43;0.90;;;24.40;76.80;;;;;;5031917;28;20455;-76
2022/07/04 06:56:14;;;;;;;1.47;0.90;;;24.50;76.00;;;;;;5035198;28;20483;-77
2022/07/04 06:58:42;;;;;;;1.47;0.90;;;24.70;75.70;;;;;;5035720;28;20466;-76
2022/07/04 07:01:10;;;;;;;1.47;0.87;;;24.80;74.90;;;;;;5030929;28;20494;-77
2022/07/04 07:03:39;;;;;;;1.47;0.90;;;25.00;74.60;;;;;;5056357;28;20490;-78
2022/07/04 07:06:06;;;;;;;1.50;0.80;;;25.10;73.30;;;;;;5031473;28;21047;-78
2022/07/04 07:08:33;;;;;;;1.47;0.90;;;25.30;73.50;;;;;;5028587;28;21010;-77
2022/07/04 07:11:13;;;;;;;1.43;0.90;;;25.20;71.50;;;;;;5042844;28;20480;-77
2022/07/04 07:13:42;;;;;;;1.50;0.87;;;25.30;70.70;;;;;;5037915;28;21008;-78
2022/07/04 07:16:09;;;;;;;1.50;0.80;;;25.40;70.70;;;;;;5032481;28;20476;-76
2022/07/04 07:18:40;;;;;;;1.47;0.90;;;25.40;71.80;;;;;;5034952;28;20461;-76
2022/07/04 07:21:08;;;;;;;1.47;0.80;;;25.50;69.80;;;;;;5028909;28;20499;-77
2022/07/04 07:23:42;;;;;;;1.47;0.80;;;25.50;69.50;;;;;;5052789;28;20519;-76
2022/07/04 07:26:14;;;;;;;1.47;0.90;;;25.50;69.30;;;;;;5032034;28;20913;-76
2022/07/04 07:28:49;;;;;;;1.50;0.90;;;25.80;68.90;;;;;;5049411;28;20491;-75
2022/07/04 07:31:16;;;;;;;1.50;0.90;;;25.90;69.40;;;;;;5034648;28;21403;-75
2022/07/04 07:33:43;;;;;;;1.50;0.80;;;26.10;68.50;;;;;;5030409;28;20474;-77
2022/07/04 07:36:20;;;;;;;1.47;0.90;;;26.20;68.10;;;;;;5033145;28;21074;-76
2022/07/04 07:38:49;;;;;;;1.47;0.83;;;26.30;66.00;;;;;;5043769;28;20459;-75
2022/07/04 07:41:22;;;;;;;1.47;0.83;;;26.40;65.80;;;;;;5033828;28;20534;-76
2022/07/04 07:43:55;;;;;;;1.47;0.80;;;26.50;64.90;;;;;;5039623;28;20478;-76
2022/07/04 07:46:23;;;;;;;1.47;0.80;;;26.60;63.50;;;;;;5042592;28;20460;-76
2022/07/04 07:48:51;;;;;;;1.47;0.90;;;26.80;66.00;;;;;;5039704;28;20569;-76
2022/07/04 07:51:24;;;;;;;1.43;0.80;;;26.80;65.00;;;;;;5031432;28;20496;-76
2022/07/04 07:53:57;;;;;;;1.50;0.80;;;27.00;63.90;;;;;;5050573;28;20463;-76
2022/07/04 07:56:35;;;;;;;1.50;0.80;;;27.00;63.80;;;;;;5032378;28;20486;-76
2022/07/04 07:59:12;;;;;;;1.50;0.80;;;27.10;63.90;;;;;;5044461;28;20455;-76
2022/07/04 08:01:41;;;;;;;1.47;0.80;;;27.10;63.40;;;;;;5035647;28;21022;-75
2022/07/04 08:07:02;;;;;;;1.47;0.80;;;27.30;63.70;;;;;;5033775;28;20504;-76
2022/07/04 08:09:29;;;;;;;1.50;0.80;;;27.40;63.00;;;;;;5038980;28;20544;-77
2022/07/04 08:11:57;;;;;;;1.47;0.83;;;27.40;63.80;;;;;;5029580;28;20491;-77
2022/07/04 08:14:24;;;;;;;1.40;0.80;;;27.50;63.80;;;;;;5028057;28;20478;-76
2022/07/04 08:16:51;;;;;;;1.73;1.47;;;27.60;62.50;;;;;;5024084;28;20471;-75
2022/07/04 08:19:18;;;;;;;1.43;0.80;;;27.70;62.20;;;;;;5038017;28;20465;-77
2022/07/04 08:21:46;;;;;;;1.43;0.80;;;27.60;61.60;;;;;;5025173;28;20792;-77
2022/07/04 08:24:13;;;;;;;1.43;0.80;;;27.60;61.40;;;;;;5028041;28;20565;-77
2022/07/04 08:26:40;;;;;;;1.47;0.80;;;27.40;61.80;;;;;;5026335;28;20863;-76
2022/07/04 08:29:09;;;;;;;1.47;0.80;;;27.50;61.70;;;;;;5027972;28;20486;-75
2022/07/04 08:31:35;;;;;;;1.40;0.90;;;27.60;61.50;;;;;;5024832;28;20570;-77
2022/07/04 08:34:02;;;;;;;1.43;0.80;;;27.60;60.30;;;;;;5027720;28;20476;-76
2022/07/04 08:36:29;;;;;;;1.40;0.80;;;27.60;61.00;;;;;;5026286;28;20463;-76
2022/07/04 08:38:56;;;;;;;1.40;0.80;;;27.60;63.00;;;;;;5030110;28;20545;-76
2022/07/04 08:41:23;;;;;;;1.40;0.80;;;27.70;63.60;;;;;;5034724;28;20478;-76
2022/07/04 08:43:52;;;;;;;1.40;0.80;;;27.80;64.70;;;;;;5031431;28;20470;-75
2022/07/04 08:46:23;;;;;;;1.40;0.80;;;27.90;62.30;;;;;;5021582;28;20491;-76
2022/07/04 08:48:53;;;;;;;1.43;0.80;;;27.90;62.90;;;;;;5036702;28;20490;-77
2022/07/04 08:51:28;;;;;;;1.40;0.80;;;28.00;64.30;;;;;;5024962;28;20496;-76
2022/07/04 08:53:58;;;;;;;1.47;0.90;;;28.10;64.30;;;;;;5027189;28;20530;-75
2022/07/04 08:59:10;;;;;;;1.50;0.90;;;28.50;62.20;;;;;;5017028;28;20856;-78
2022/07/04 09:01:43;;;;;;;1.40;0.80;;;28.60;61.10;;;;;;5026382;28;20488;-79
2022/07/04 09:04:12;;;;;;;1.40;0.80;;;28.80;60.70;;;;;;5030783;28;20546;-79
2022/07/04 09:06:40;;;;;;;1.47;0.80;;;28.80;60.90;;;;;;5018707;28;20482;-78
2022/07/04 09:09:09;;;;;;;1.47;0.80;;;28.70;61.30;;;;;;5037031;28;21032;-76
2022/07/04 09:11:37;;;;;;;1.50;0.80;;;28.60;60.90;;;;;;5031032;28;20543;-77
2022/07/04 09:14:04;;;;;;;1.40;0.80;;;28.60;61.50;;;;;;5034489;28;20516;-77
2022/07/04 09:16:31;;;;;;;1.47;0.80;;;28.70;60.20;;;;;;5033701;28;20824;-76
2022/07/04 09:18:59;;;;;;;1.40;0.80;;;28.90;61.20;;;;;;5035189;28;20524;-78
2022/07/04 09:21:57;;;;;;;1.47;0.80;;;28.90;62.70;;;;;;5040056;28;20479;-76
2022/07/04 09:24:45;;;;;;;1.43;0.80;;;29.00;60.40;;;;;;5038311;28;20516;-78
2022/07/04 09:27:13;;;;;;;1.47;0.80;;;29.10;60.60;;;;;;5027829;28;20724;-78
2022/07/04 09:29:54;;;;;;;1.47;0.80;;;29.20;60.90;;;;;;5032869;28;20482;-78
2022/07/04 09:32:34;;;;;;;1.50;0.80;;;29.20;61.80;;;;;;5033824;28;20482;-77
2022/07/04 09:35:04;;;;;;;1.50;0.80;;;29.40;59.60;;;;;;5034079;28;20530;-77
2022/07/04 09:37:48;;;;;;;1.43;0.80;;;29.50;60.60;;;;;;5038428;28;20631;-79
2022/07/04 09:40:29;;;;;;;1.40;0.80;;;29.60;58.70;;;;;;5033389;28;20719;-78
2022/07/04 09:42:58;;;;;;;1.50;0.80;;;29.70;59.30;;;;;;5020580;28;20478;-79
2022/07/04 09:45:26;;;;;;;1.47;0.90;;;29.90;58.90;;;;;;5033682;28;20509;-79
2022/07/04 09:47:56;;;;;;;1.40;0.80;;;30.00;57.80;;;;;;5038765;28;20477;-79
2022/07/04 09:50:26;;;;;;;1.47;0.80;;;30.20;58.40;;;;;;5032531;28;20867;-78
2022/07/04 09:52:56;;;;;;;1.40;0.80;;;30.10;57.40;;;;;;5036949;28;20481;-79
2022/07/04 09:55:27;;;;;;;1.40;0.83;;;30.10;58.10;;;;;;5033118;28;20462;-79
2022/07/04 09:57:56;;;;;;;1.47;0.80;;;30.20;57.60;;;;;;5039974;28;20485;-80
2022/07/04 10:00:28;;;;;;;1.43;0.80;;;30.20;58.60;;;;;;5034124;28;20463;-77
2022/07/04 10:02:57;;;;;;;1.50;0.80;;;30.40;57.40;;;;;;5037169;28;20485;-78
2022/07/04 10:05:27;;;;;;;1.40;0.80;;;30.50;58.50;;;;;;5032793;28;20766;-79
2022/07/04 10:07:56;;;;;;;1.40;0.80;;;30.30;58.10;;;;;;5025631;28;20538;-78
2022/07/04 10:10:34;;;;;;;1.40;0.80;;;30.50;58.20;;;;;;5035537;28;20490;-79
2022/07/04 10:13:04;;;;;;;1.43;0.80;;;30.50;56.70;;;;;;5031804;28;20846;-78
2022/07/04 10:15:31;;;;;;;1.47;0.80;;;30.60;55.30;;;;;;5033083;28;20880;-79
2022/07/04 10:17:59;;;;;;;1.43;0.80;;;30.70;57.80;;;;;;5035428;28;21138;-78
2022/07/04 10:20:28;;;;;;;1.40;0.80;;;30.80;59.30;;;;;;5030949;28;20869;-78
2022/07/04 10:22:58;;;;;;;1.47;0.80;;;31.00;57.30;;;;;;5032982;28;20495;-77
2022/07/04 10:25:29;;;;;;;1.40;0.80;;;31.10;56.80;;;;;;5033837;28;20274;-78
2022/07/04 10:27:56;;;;;;;1.40;0.80;;;31.20;56.70;;;;;;5036815;28;20298;-80
2022/07/04 10:30:27;;;;;;;1.50;0.80;;;31.30;57.00;;;;;;5032872;28;20236;-78
2022/07/04 10:32:57;;;;;;;1.40;0.80;;;31.30;55.40;;;;;;5036670;28;20255;-78
2022/07/04 10:35:51;;;;;;;1.40;0.80;;;31.30;55.20;;;;;;5032428;28;21029;-78
2022/07/04 10:38:19;;;;;;;1.40;0.80;;;31.40;56.70;;;;;;5030433;28;20215;-80
2022/07/04 10:40:49;;;;;;;1.43;0.80;;;31.70;54.20;;;;;;5037195;28;20228;-79
2022/07/04 10:44:01;;;;;;;1.40;0.80;;;31.80;56.80;;;;;;5047188;28;20215;-79
2022/07/04 10:46:34;;;;;;;1.43;0.80;;;32.00;55.30;;;;;;5027237;28;20211;-80
2022/07/04 10:49:03;;;;;;;1.43;0.80;;;32.00;53.90;;;;;;5032925;28;20199;-79
2022/07/04 10:51:41;;;;;;;1.40;0.80;;;32.00;55.90;;;;;;5027361;28;20235;-79
2022/07/04 10:54:11;;;;;;;1.40;0.80;;;32.10;54.60;;;;;;5040314;28;20240;-79
2022/07/04 10:56:44;;;;;;;1.40;0.80;;;32.20;54.40;;;;;;5029383;28;20634;-79
2022/07/04 10:59:18;;;;;;;1.40;0.80;;;32.30;54.80;;;;;;5031246;28;20228;-77
2022/07/04 11:02:02;;;;;;;1.40;0.80;;;32.20;54.80;;;;;;5027005;28;20338;-79
2022/07/04 11:04:48;;;;;;;1.40;0.80;;;32.30;54.60;;;;;;5036881;28;20579;-78
2022/07/04 11:07:18;;;;;;;1.47;0.80;;;32.40;55.30;;;;;;5030181;28;20603;-78
2022/07/04 11:09:47;;;;;;;1.40;0.80;;;32.40;54.60;;;;;;5032714;28;20237;-81
2022/07/04 11:12:14;;;;;;;1.40;0.80;;;32.50;54.30;;;;;;5042496;22;20234;-78
2022/07/04 11:14:43;;;;;;;1.40;0.80;;;32.30;54.30;;;;;;5019009;28;20204;-78
2022/07/04 11:17:12;;;;;;;1.50;0.80;;;32.10;54.20;;;;;;5005521;28;20301;-79
2022/07/04 11:19:40;;;;;;;1.40;0.80;;;31.60;56.30;;;;;;5012595;28;20775;-79
2022/07/04 11:22:08;;;;;;;1.40;0.80;;;31.40;57.30;;;;;;4998287;28;20930;-79
2022/07/04 11:24:37;;;;;;;1.40;0.80;;;31.30;57.10;;;;;;4993058;28;20214;-78
2022/07/04 11:27:04;;;;;;;1.40;0.80;;;31.20;57.30;;;;;;4991401;28;20210;-78
2022/07/04 11:29:31;;;;;;;1.40;0.80;;;31.40;57.60;;;;;;4985500;28;20265;-78
2022/07/04 11:32:05;;;;;;;1.40;0.80;;;31.70;56.10;;;;;;4988997;28;20583;-78
2022/07/04 11:34:32;;;;;;;1.40;0.80;;;32.00;54.40;;;;;;4989107;28;20242;-78
2022/07/04 11:37:01;;;;;;;1.40;0.80;;;32.30;54.20;;;;;;4985077;28;20708;-78
2022/07/04 11:39:28;;;;;;;1.40;0.80;;;32.50;54.90;;;;;;4994962;28;20283;-79
2022/07/04 11:45:02;;;;;;;1.40;0.80;;;32.80;52.10;;;;;;4988881;28;20616;-79
2022/07/04 11:47:35;;;;;;;1.40;0.80;;;32.80;54.20;;;;;;4996415;28;20232;-79
2022/07/04 11:50:04;;;;;;;1.47;0.80;;;32.90;53.00;;;;;;4996623;28;20198;-80
2022/07/04 11:52:42;;;;;;;1.40;0.80;;;32.90;53.30;;;;;;4991884;28;20217;-79
2022/07/04 11:55:15;;;;;;;1.40;0.80;;;33.00;54.40;;;;;;4997781;28;20291;-79
2022/07/04 11:57:47;;;;;;;1.42;0.80;;;33.20;53.90;;;;;;5000769;28;20291;-79
2022/07/04 12:00:16;;;;;;;1.40;0.80;;;33.40;53.60;;;;;;4994937;28;20229;-77
2022/07/04 12:02:45;;;;;;;1.40;0.80;;;33.40;53.40;;;;;;4998546;28;20238;-78
2022/07/04 12:05:14;;;;;;;1.40;0.80;;;33.20;52.50;;;;;;4995530;28;20244;-78
2022/07/04 12:07:49;;;;;;;1.40;0.80;;;32.70;51.80;;;;;;4995103;28;20205;-78
2022/07/04 12:10:24;;;;;;;1.40;0.80;;;32.20;52.70;;;;;;4996427;28;20197;-79
2022/07/04 12:13:06;;;;;;;1.40;0.80;;;31.70;53.70;;;;;;4984309;28;20728;-79
2022/07/04 12:15:41;;;;;;;1.43;0.80;;;31.60;56.10;;;;;;4996766;28;20213;-77
2022/07/04 12:18:20;;;;;;;1.40;0.80;;;31.80;55.10;;;;;;5001420;28;20295;-78
2022/07/04 12:20:52;;;;;;;1.40;0.80;;;32.10;54.20;;;;;;4994250;28;20247;-78
2022/07/04 12:23:25;;;;;;;1.40;0.80;;;32.10;55.00;;;;;;4994858;28;20267;-78
2022/07/04 12:26:03;;;;;;;1.40;0.80;;;32.20;55.80;;;;;;4986447;28;20205;-79
2022/07/04 12:28:38;;;;;;;1.40;0.80;;;32.40;54.90;;;;;;5007961;28;20224;-78
2022/07/04 12:31:05;;;;;;;1.40;0.80;;;32.60;54.00;;;;;;4998938;23;20251;-77
2022/07/04 12:33:32;;;;;;;1.40;0.80;;;32.70;55.80;;;;;;5002353;28;20685;-78
2022/07/04 12:36:00;;;;;;;1.40;0.80;;;32.80;53.80;;;;;;5010928;28;20213;-81
2022/07/04 12:38:36;;;;;;;1.40;0.80;;;33.10;52.60;;;;;;4992400;28;20359;-79
2022/07/04 12:41:19;;;;;;;1.40;0.80;;;33.10;51.90;;;;;;4982316;28;20285;-77
2022/07/04 12:43:51;;;;;;;1.40;0.80;;;33.10;52.90;;;;;;5003547;28;20197;-78
2022/07/04 12:46:29;;;;;;;1.40;0.80;;;33.20;53.50;;;;;;5013051;28;20673;-79
2022/07/04 12:49:00;;;;;;;1.40;0.80;;;33.30;52.90;;;;;;5014064;28;20308;-78
2022/07/04 12:51:29;;;;;;;1.40;0.80;;;33.30;51.40;;;;;;5014149;28;20299;-80
2022/07/04 12:58:53;;;;;;;1.40;0.80;;;33.80;51.20;;;;;;5029544;28;20639;-78
2022/07/04 13:01:20;;;;;;;1.40;0.80;;;33.90;49.90;;;;;;5028859;28;20319;-77
2022/07/04 13:03:50;;;;;;;1.40;0.80;;;33.90;49.40;;;;;;5023119;28;20234;-79
2022/07/04 13:06:17;;;;;;;1.40;0.80;;;33.90;49.90;;;;;;5027270;28;20504;-78
2022/07/04 13:08:45;;;;;;;1.40;0.80;;;34.10;50.60;;;;;;5043888;28;20298;-77
2022/07/04 13:14:01;;;;;;;1.40;0.80;;;34.50;49.70;;;;;;5045407;28;20203;-76
2022/07/04 13:16:28;;;;;;;1.40;0.80;;;34.40;50.40;;;;;;5036506;28;20258;-77
2022/07/04 13:18:56;;;;;;;1.40;0.80;;;34.20;50.00;;;;;;5035899;28;20235;-77
2022/07/04 13:21:24;;;;;;;1.40;0.80;;;34.20;50.10;;;;;;5024449;28;20232;-77
2022/07/04 13:23:53;;;;;;;1.40;0.80;;;34.30;50.50;;;;;;5037281;28;20619;-77
2022/07/04 13:26:21;;;;;;;1.40;0.80;;;34.40;50.40;;;;;;5030702;28;20235;-77
2022/07/04 13:28:48;;;;;;;1.35;0.80;;;34.40;50.00;;;;;;5046152;28;20208;-77
2022/07/04 13:31:17;;;;;;;1.40;0.80;;;34.40;50.20;;;;;;5035174;28;20288;-77
2022/07/04 13:33:44;;;;;;;1.40;0.82;;;34.40;49.90;;;;;;5034806;28;20621;-78